Terminal Aerodrome Forecast
Issued by NWS Charleston, WV

Current Version | Previous Version | Graphics & Text | Print | Product List | Glossary On
Versions: 1 2 3 4 5 6 7 8 9 10 11 12 13 14 15 16 17 18 19 20 21 22 23 24 25 26
000
FTUS41 KRLX 251155 CCA
TAFEKN
TAF COR
KEKN 251155Z 2512/2612 16005KT P6SM SCT004 BKN028 OVC050
     FM251400 24005KT P6SM BKN030
     FM251600 24007KT P6SM BKN045
     FM252100 24007KT P6SM SHRA BKN030
     FM260200 28009KT P6SM OVC012=

USA.gov is the U.S. government's official web portal to all federal, state and local government web resources and services.